Terminal Aerodrome Forecast
Issued by NWS Springfield, MO

Home | Current Version | Previous Version | Text Only | Print | Product List | Glossary On
Versions: 1 2 3 4 5 6 7 8 9 10 11 12 13 14 15 16 17 18 19 20
000
FTUS43 KSGF 241100
TAFSGF
TAF
KSGF 241120Z 2412/2512 15016G24KT P6SM VCSH BKN045 OVC060
      WS020/16040KT
      TEMPO 2413/2416 4SM -TSRA OVC025CB
     FM241700 16018G26KT P6SM SCT030 BKN070
     FM250300 16016G24KT P6SM SCT030 OVC050 WS020/21040KT
      TEMPO 2503/2507 6SM -TSRA OVC030CB=

USA.gov is the U.S. government's official web portal to all federal, state and local government web resources and services.